createdAt,value
2022-11-27T00:00:29.019Z,3.78
2022-11-27T00:05:39.385Z,3.74
2022-11-27T00:10:49.139Z,3.74
2022-11-27T00:15:59.838Z,3.74
2022-11-27T00:21:09.298Z,3.74
2022-11-27T00:26:17.143Z,3.77
2022-11-27T00:31:25.304Z,3.77
2022-11-27T00:36:35.397Z,3.76
2022-11-27T00:41:45.148Z,3.74
2022-11-27T00:46:53.954Z,3.74
2022-11-27T00:52:01.492Z,3.75
2022-11-27T00:57:10.581Z,3.75
2022-11-27T01:02:22.549Z,3.77
2022-11-27T01:07:31.619Z,3.77
2022-11-27T01:12:40.527Z,3.75
2022-11-27T01:17:54.344Z,3.75
2022-11-27T01:23:12.181Z,3.75
2022-11-27T01:28:29.284Z,3.75
2022-11-27T01:33:47.161Z,3.73
2022-11-27T01:39:03.957Z,3.73
2022-11-27T01:44:21.243Z,3.73
2022-11-27T01:49:38.674Z,3.73
2022-11-27T01:54:54.846Z,3.71
2022-11-27T02:00:12.271Z,3.71
2022-11-27T02:04:39.867Z,3.72
2022-11-27T02:09:17.614Z,3.72
2022-11-27T02:14:26.741Z,3.75
2022-11-27T02:19:36.499Z,3.75
2022-11-27T02:24:45.617Z,3.69
2022-11-27T02:29:54.129Z,3.69
2022-11-27T02:35:03.861Z,3.7
2022-11-27T02:40:13.669Z,3.7
2022-11-27T02:45:22.742Z,3.73
2022-11-27T02:50:33.093Z,3.73
2022-11-27T02:55:49.265Z,3.73
2022-11-27T03:01:05.453Z,3.73
2022-11-27T03:06:20.935Z,3.74
2022-11-27T03:11:36.476Z,3.74
2022-11-27T03:16:52.650Z,3.71
2022-11-27T03:22:08.763Z,3.71
2022-11-27T03:27:23.676Z,3.71
2022-11-27T03:32:38.622Z,3.71
2022-11-27T03:37:54.059Z,3.72
2022-11-27T03:43:10.245Z,3.75
2022-11-27T03:48:25.147Z,3.75
2022-11-27T03:52:51.259Z,3.75
2022-11-27T03:57:31.174Z,3.75
2022-11-27T04:02:38.933Z,3.72
2022-11-27T04:07:48.230Z,3.72
2022-11-27T04:12:57.138Z,3.72
2022-11-27T04:18:06.295Z,3.72
2022-11-27T04:23:16.025Z,3.74
2022-11-27T04:28:25.822Z,3.74
2022-11-27T04:33:35.550Z,3.75
2022-11-27T04:38:45.335Z,3.75
2022-11-27T04:43:54.431Z,3.75
2022-11-27T04:49:03.564Z,3.75
2022-11-27T04:54:12.675Z,3.76
2022-11-27T04:59:21.137Z,3.76
2022-11-27T05:04:30.965Z,3.79
2022-11-27T05:09:39.393Z,3.79
2022-11-27T05:14:47.862Z,3.76
2022-11-27T05:19:57.625Z,3.76
2022-11-27T05:25:07.378Z,3.78
2022-11-27T05:30:16.526Z,3.78
2022-11-27T05:35:26.261Z,3.78
2022-11-27T05:40:36.667Z,3.78
2022-11-27T05:45:48.457Z,3.81
2022-11-27T05:51:03.976Z,3.81
2022-11-27T05:56:19.532Z,3.78
2022-11-27T06:01:34.413Z,3.78
2022-11-27T06:06:50.577Z,3.8
2022-11-27T06:12:10.961Z,3.8
2022-11-27T06:17:21.602Z,3.8
2022-11-27T06:22:38.384Z,3.8
2022-11-27T06:27:54.988Z,3.82
2022-11-27T06:33:08.890Z,3.82
2022-11-27T06:38:25.521Z,3.81
2022-11-27T06:43:42.253Z,3.81
2022-11-27T06:48:09.186Z,3.86
2022-11-27T06:52:50.341Z,3.85
2022-11-27T06:57:59.360Z,3.85
2022-11-27T07:03:08.374Z,3.85
2022-11-27T07:08:18.819Z,3.85
2022-11-27T07:13:33.587Z,3.84
2022-11-27T07:18:49.747Z,3.84
2022-11-27T07:24:05.929Z,3.88
2022-11-27T07:29:21.410Z,3.88
2022-11-27T07:34:36.305Z,3.81
2022-11-27T07:40:03.801Z,3.81
2022-11-27T07:45:06.084Z,3.84
2022-11-27T07:50:20.313Z,3.84
2022-11-27T07:55:35.215Z,3.83
2022-11-27T08:00:52.076Z,3.83
2022-11-27T08:06:06.310Z,3.84
2022-11-27T08:10:32.421Z,3.84
2022-11-27T08:15:17.298Z,3.84
2022-11-27T08:20:26.426Z,3.84
2022-11-27T08:25:35.555Z,3.84
2022-11-27T08:30:45.313Z,3.84
2022-11-27T08:35:54.023Z,3.87
2022-11-27T08:41:02.904Z,3.87
2022-11-27T08:46:13.079Z,3.84
2022-11-27T08:51:21.786Z,3.84
2022-11-27T08:56:31.623Z,3.89
2022-11-27T09:01:40.675Z,3.89
2022-11-27T09:06:59.009Z,3.88
2022-11-27T09:11:57.620Z,3.88
2022-11-27T09:17:06.251Z,3.87
2022-11-27T09:22:15.216Z,3.87
2022-11-27T09:27:24.438Z,3.88
2022-11-27T09:32:40.552Z,3.88
2022-11-27T09:37:55.956Z,3.88
2022-11-27T09:43:12.317Z,3.88
2022-11-27T09:48:29.180Z,3.87
2022-11-27T09:53:45.280Z,3.87
2022-11-27T09:59:01.398Z,3.87
2022-11-27T10:04:18.986Z,3.88
2022-11-27T10:09:34.902Z,3.88
2022-11-27T10:14:51.157Z,3.89
2022-11-27T10:20:09.428Z,3.89
2022-11-27T10:24:38.492Z,3.86
2022-11-27T10:29:18.288Z,3.86
2022-11-27T10:34:27.378Z,3.91
2022-11-27T10:39:36.507Z,3.91
2022-11-27T10:44:46.262Z,3.87
2022-11-27T10:49:56.023Z,3.87
2022-11-27T10:55:05.135Z,3.91
2022-11-27T11:00:14.686Z,3.91
2022-11-27T11:06:23.098Z,3.89
2022-11-27T11:10:32.506Z,3.89
2022-11-27T11:15:40.973Z,3.89
2022-11-27T11:20:50.774Z,3.89
2022-11-27T11:26:00.505Z,3.88
2022-11-27T11:31:09.620Z,3.88
2022-11-27T11:36:19.373Z,3.89
2022-11-27T11:41:28.503Z,3.89
2022-11-27T11:46:37.627Z,3.9
2022-11-27T11:51:48.041Z,3.9
2022-11-27T11:56:57.141Z,3.9
2022-11-27T12:02:36.949Z,3.9
2022-11-27T12:07:25.631Z,3.85
2022-11-27T12:12:42.038Z,3.85
2022-11-27T12:17:58.035Z,3.97
2022-11-27T12:23:14.554Z,3.97
2022-11-27T12:26:52.271Z,3.89
2022-11-27T12:27:42.273Z,3.89
2022-11-27T12:32:10.453Z,3.89
2022-11-27T12:33:00.413Z,3.89
2022-11-27T12:37:26.690Z,3.9
2022-11-27T12:38:16.688Z,3.9
2022-11-27T12:42:42.042Z,3.9
2022-11-27T12:43:32.036Z,3.9
2022-11-27T12:47:59.848Z,3.92
2022-11-27T12:48:49.799Z,3.92
2022-11-27T12:53:18.867Z,3.92
2022-11-27T12:54:05.874Z,3.92
2022-11-27T12:58:34.351Z,3.91
2022-11-27T13:00:14.355Z,3.91
2022-11-27T13:03:51.827Z,3.89
2022-11-27T13:11:41.659Z,3.89
2022-11-27T13:12:23.863Z,3.89
2022-11-27T13:17:24.690Z,3.94
2022-11-27T13:24:58.520Z,3.88
2022-11-27T13:31:05.411Z,3.88
2022-11-27T13:37:11.321Z,3.89
2022-11-27T13:38:37.495Z,3.89
2022-11-27T13:43:46.111Z,3.89
2022-11-27T13:44:16.078Z,3.89
2022-11-27T13:49:02.927Z,3.91
2022-11-27T13:49:32.861Z,3.91
2022-11-27T13:54:29.455Z,3.86
2022-11-27T13:54:54.552Z,3.86
2022-11-27T13:59:59.567Z,3.86
2022-11-27T14:00:29.526Z,3.86
2022-11-27T14:05:17.622Z,3.88
2022-11-27T14:05:47.572Z,3.88
2022-11-27T14:10:35.067Z,3.88
2022-11-27T14:11:05.021Z,3.88
2022-11-27T14:15:52.284Z,3.87
2022-11-27T14:19:41.882Z,3.87
2022-11-27T14:24:41.838Z,3.88
2022-11-27T14:25:53.708Z,3.88
2022-11-27T14:31:01.341Z,3.88
2022-11-27T14:31:31.315Z,3.88
2022-11-27T14:36:18.103Z,3.89
2022-11-27T14:36:48.055Z,3.89
2022-11-27T14:41:34.903Z,3.89
2022-11-27T14:44:08.524Z,3.89
2022-11-27T14:48:35.234Z,3.89
2022-11-27T14:56:23.217Z,3.92
2022-11-27T15:03:40.066Z,3.92
2022-11-27T15:10:00.844Z,3.92
2022-11-27T15:14:22.261Z,3.92
2022-11-27T15:17:22.207Z,3.92
2022-11-27T15:21:05.723Z,3.92
2022-11-27T15:22:45.722Z,3.92
2022-11-27T15:26:25.237Z,3.91
2022-11-27T15:28:04.762Z,3.91
2022-11-27T15:31:43.101Z,3.91
2022-11-27T15:42:17.074Z,3.92
2022-11-27T15:54:32.768Z,3.92
2022-11-27T15:55:22.759Z,3.92
2022-11-27T16:05:58.344Z,3.94
2022-11-27T16:11:01.941Z,3.91
2022-11-27T16:11:31.897Z,3.91
2022-11-27T16:16:25.636Z,3.95
2022-11-27T16:20:56.753Z,3.95
2022-11-27T16:26:14.413Z,3.95
2022-11-27T16:35:10.284Z,3.92
2022-11-27T16:40:27.809Z,3.92
2022-11-27T16:41:17.798Z,3.92
2022-11-27T16:45:43.388Z,3.9
2022-11-27T16:57:57.502Z,3.91
2022-11-27T17:03:13.788Z,3.91
2022-11-27T17:04:07.013Z,3.91
2022-11-27T17:09:16.986Z,3.89
2022-11-27T17:09:54.120Z,3.89
2022-11-27T17:14:54.899Z,3.91
2022-11-27T17:31:51.864Z,3.95
2022-11-27T17:40:11.386Z,3.91
2022-11-27T17:45:28.633Z,3.91
2022-11-27T17:50:46.874Z,3.89
2022-11-27T17:56:19.790Z,3.9
2022-11-27T18:01:30.281Z,3.9
2022-11-27T18:02:11.128Z,3.9
2022-11-27T18:06:48.501Z,3.93
2022-11-27T18:07:28.131Z,3.93
2022-11-27T18:12:05.942Z,3.93
2022-11-27T18:23:10.899Z,3.9
2022-11-27T18:40:25.133Z,3.9
2022-11-27T18:54:03.283Z,3.89
2022-11-27T18:59:19.474Z,3.88
2022-11-27T19:04:23.220Z,3.88
2022-11-27T19:09:51.725Z,3.9
2022-11-27T19:15:07.853Z,3.9
2022-11-27T19:19:55.574Z,3.88
2022-11-27T19:25:40.140Z,3.88
2022-11-27T19:30:55.054Z,3.9
2022-11-27T19:36:10.539Z,3.89
2022-11-27T19:41:26.698Z,3.89
2022-11-27T19:46:43.498Z,3.86
2022-11-27T20:02:30.175Z,3.9
2022-11-27T20:13:01.091Z,3.91
2022-11-27T20:34:05.106Z,3.88
2022-11-27T20:39:21.512Z,3.89
2022-11-27T20:44:36.139Z,3.89
2022-11-27T20:49:51.056Z,3.86
2022-11-27T20:55:06.539Z,3.86
2022-11-27T21:00:22.701Z,3.88
2022-11-27T21:05:38.330Z,3.88
2022-11-27T21:10:03.755Z,3.86
2022-11-27T21:14:30.550Z,3.86
2022-11-27T21:19:46.684Z,3.86
2022-11-27T21:25:02.892Z,3.86
2022-11-27T21:29:29.018Z,3.88
2022-11-27T21:34:10.097Z,3.88
2022-11-27T21:39:19.213Z,3.89
2022-11-27T21:44:28.978Z,3.89
2022-11-27T21:49:38.747Z,3.88
2022-11-27T21:54:47.859Z,3.88
2022-11-27T21:59:56.977Z,3.9
2022-11-27T22:05:05.464Z,3.9
2022-11-27T22:10:13.967Z,3.89
2022-11-27T22:15:23.695Z,3.89
2022-11-27T22:20:32.195Z,3.86
2022-11-27T22:25:41.951Z,3.91
2022-11-27T22:30:52.018Z,3.91
2022-11-27T22:36:00.832Z,3.88
2022-11-27T22:41:10.572Z,3.88
2022-11-27T22:46:19.555Z,3.88
2022-11-27T22:51:28.823Z,3.88
2022-11-27T22:56:37.296Z,3.92
2022-11-27T23:01:47.063Z,3.92
2022-11-27T23:06:55.545Z,3.89
2022-11-27T23:12:04.662Z,3.89
2022-11-27T23:17:13.185Z,3.9
2022-11-27T23:22:21.625Z,3.9
2022-11-27T23:27:36.614Z,3.89
2022-11-27T23:32:51.499Z,3.89
2022-11-27T23:38:05.745Z,3.91
2022-11-27T23:43:21.322Z,3.91
2022-11-27T23:48:35.518Z,3.91
2022-11-27T23:53:51.656Z,3.91
